createdAt,value
2018-12-06T00:02:45.090Z,94.56
2018-12-06T00:08:08.405Z,95.41
2018-12-06T00:13:16.993Z,95.88
2018-12-06T00:18:30.739Z,95.91
2018-12-06T00:23:40.001Z,95.82
2018-12-06T00:29:36.634Z,95.95
2018-12-06T00:34:49.978Z,95.80
2018-12-06T00:40:01.216Z,95.34
2018-12-06T00:45:23.461Z,95.86
2018-12-06T00:50:37.226Z,95.23
2018-12-06T01:01:27.399Z,96.42
2018-12-06T01:06:34.213Z,96.32
2018-12-06T01:11:42.881Z,95.77
2018-12-06T01:16:50.474Z,96.11
2018-12-06T01:22:02.022Z,96.48
2018-12-06T01:32:38.622Z,95.55
2018-12-06T01:37:47.810Z,96.09
2018-12-06T01:48:36.851Z,96.14
2018-12-06T01:53:52.465Z,96.96
2018-12-06T02:10:04.163Z,97.30
2018-12-06T02:20:54.209Z,96.77
2018-12-06T02:25:57.734Z,96.32
2018-12-06T02:31:07.962Z,97.05
2018-12-06T02:41:49.447Z,96.90
2018-12-06T02:47:01.604Z,97.06
2018-12-06T02:52:11.206Z,96.94
2018-12-06T03:02:50.307Z,97.36
2018-12-06T03:08:01.178Z,97.05
2018-12-06T03:13:08.693Z,96.37
2018-12-06T03:18:24.345Z,97.09
2018-12-06T03:23:34.695Z,97.40
2018-12-06T03:28:41.612Z,98.24
2018-12-06T03:33:51.576Z,98.45
2018-12-06T03:38:58.589Z,99.02
2018-12-06T03:44:06.533Z,98.43
2018-12-06T03:49:15.985Z,98.03
2018-12-06T03:54:29.039Z,97.38
2018-12-06T04:10:37.991Z,96.67
2018-12-06T04:21:13.591Z,97.96
2018-12-06T04:26:27.173Z,97.48
2018-12-06T04:31:38.076Z,97.01
2018-12-06T04:36:49.266Z,97.08
2018-12-06T04:42:00.805Z,96.87
2018-12-06T04:47:20.204Z,96.61
2018-12-06T04:52:29.158Z,96.98
2018-12-06T04:57:36.368Z,96.80
2018-12-06T05:02:45.624Z,96.75
2018-12-06T05:18:55.247Z,97.04
2018-12-06T05:24:16.515Z,97.63
2018-12-06T05:45:06.898Z,97.49
2018-12-06T05:50:16.466Z,97.33
2018-12-06T05:55:26.201Z,97.34
2018-12-06T06:00:36.682Z,97.36
2018-12-06T06:05:46.382Z,96.95
2018-12-06T06:10:59.385Z,97.48
2018-12-06T06:16:24.793Z,97.52
2018-12-06T06:27:12.815Z,97.61
2018-12-06T06:43:22.143Z,96.57
2018-12-06T06:48:32.906Z,96.55
2018-12-06T06:53:52.177Z,96.94
2018-12-06T07:10:20.441Z,96.19
2018-12-06T07:15:30.549Z,96.41
2018-12-06T07:20:43.634Z,96.87
2018-12-06T07:25:50.699Z,97.34
2018-12-06T07:30:57.295Z,96.66
2018-12-06T07:36:04.014Z,96.75
2018-12-06T07:41:19.445Z,97.56
2018-12-06T07:51:39.309Z,98.16
2018-12-06T07:56:52.697Z,97.36
2018-12-06T08:02:08.757Z,97.25
2018-12-06T08:07:24.811Z,96.70
2018-12-06T08:12:34.282Z,96.97
2018-12-06T08:17:41.252Z,97.39
2018-12-06T08:22:46.485Z,97.65
2018-12-06T08:27:59.497Z,97.44
2018-12-06T08:33:12.951Z,96.75
2018-12-06T08:44:00.078Z,97.15
2018-12-06T08:49:09.236Z,96.80
2018-12-06T08:54:16.360Z,96.75
2018-12-06T08:59:28.951Z,97.02
2018-12-06T09:04:40.455Z,97.07
2018-12-06T09:09:59.779Z,97.05
2018-12-06T09:15:15.351Z,98.05
2018-12-06T09:20:29.145Z,97.01
2018-12-06T09:25:33.989Z,96.89
2018-12-06T09:30:41.397Z,96.51
2018-12-06T09:35:50.929Z,96.52
2018-12-06T09:40:57.910Z,96.45
2018-12-06T09:46:04.563Z,96.01
2018-12-06T09:51:18.228Z,96.69
2018-12-06T09:56:25.350Z,97.08
2018-12-06T10:01:34.241Z,97.95
2018-12-06T10:06:45.596Z,97.79
2018-12-06T10:11:59.571Z,97.54
2018-12-06T10:22:38.980Z,97.57
2018-12-06T10:27:45.807Z,97.78
2018-12-06T10:33:07.121Z,97.93
2018-12-06T10:38:15.030Z,98.51
2018-12-06T10:43:26.264Z,98.27
2018-12-06T10:48:51.878Z,97.48
2018-12-06T10:53:59.569Z,96.94
2018-12-06T10:59:07.065Z,96.99
2018-12-06T11:09:53.607Z,96.95
2018-12-06T11:26:02.550Z,96.87
2018-12-06T11:31:19.497Z,97.77
2018-12-06T11:36:32.478Z,97.44
2018-12-06T11:41:43.381Z,97.99
2018-12-06T11:46:52.453Z,98.20
2018-12-06T11:52:02.021Z,98.02
2018-12-06T11:57:16.302Z,97.87
2018-12-06T12:07:28.789Z,97.56
2018-12-06T12:12:37.663Z,97.25
2018-12-06T12:17:43.272Z,96.77
2018-12-06T12:22:53.095Z,96.57
2018-12-06T12:28:00.464Z,96.15
2018-12-06T12:33:10.732Z,96.44
2018-12-06T12:38:21.794Z,96.42
2018-12-06T12:43:35.158Z,95.92
2018-12-06T12:48:42.470Z,95.43
2018-12-06T12:53:52.573Z,95.73
2018-12-06T12:59:05.890Z,95.28
2018-12-06T13:04:23.357Z,94.75
2018-12-06T13:09:36.484Z,94.58
2018-12-06T13:14:43.287Z,94.40
2018-12-06T13:19:51.028Z,93.76
2018-12-06T13:24:56.766Z,93.51
2018-12-06T13:30:10.571Z,93.71
2018-12-06T13:35:19.610Z,93.83
2018-12-06T13:40:39.311Z,94.15
2018-12-06T13:45:46.025Z,93.87
2018-12-06T13:50:57.588Z,93.62
2018-12-06T14:07:16.328Z,93.49
2018-12-06T14:12:23.477Z,93.55
2018-12-06T14:23:03.758Z,94.18
2018-12-06T14:28:18.801Z,93.73
2018-12-06T14:33:25.970Z,93.88
2018-12-06T14:38:40.042Z,93.79
2018-12-06T14:43:48.358Z,93.70
2018-12-06T14:48:55.818Z,93.22
2018-12-06T14:54:06.143Z,93.96
2018-12-06T14:59:19.912Z,93.29
2018-12-06T15:04:38.774Z,93.44
2018-12-06T15:09:42.622Z,93.58
2018-12-06T15:15:04.113Z,93.49
2018-12-06T15:25:53.737Z,93.46
2018-12-06T15:31:01.371Z,93.01
2018-12-06T15:41:43.181Z,93.41
2018-12-06T15:46:53.672Z,92.80
2018-12-06T15:52:16.633Z,92.79
2018-12-06T15:57:37.892Z,93.11
2018-12-06T16:02:47.749Z,92.84
2018-12-06T16:18:56.849Z,92.64
2018-12-06T16:24:10.082Z,93.14
2018-12-06T16:40:17.792Z,93.48
2018-12-06T16:45:24.854Z,93.71
2018-12-06T16:50:47.541Z,93.79
2018-12-06T17:01:27.229Z,93.77
2018-12-06T17:23:07.971Z,94.16
2018-12-06T17:28:15.936Z,94.14
2018-12-06T17:33:26.393Z,93.86
2018-12-06T17:38:29.897Z,94.15
2018-12-06T17:43:45.317Z,92.99
2018-12-06T17:48:59.208Z,93.82
2018-12-06T17:54:06.235Z,93.78
2018-12-06T17:59:13.395Z,93.02
2018-12-06T18:04:25.110Z,93.35
2018-12-06T18:09:31.765Z,93.72
2018-12-06T18:14:41.434Z,93.27
2018-12-06T18:25:19.928Z,93.70
2018-12-06T18:30:33.376Z,93.64
2018-12-06T18:35:40.330Z,94.07
2018-12-06T18:40:47.723Z,93.88
2018-12-06T18:45:54.745Z,94.02
2018-12-06T18:51:08.340Z,93.87
2018-12-06T18:56:20.741Z,94.19
2018-12-06T19:18:06.677Z,94.68
2018-12-06T19:23:23.614Z,94.55
2018-12-06T19:28:29.053Z,94.23
2018-12-06T19:33:44.613Z,93.98
2018-12-06T19:44:22.002Z,93.27
2018-12-06T19:55:05.118Z,93.71
2018-12-06T20:00:32.338Z,94.01
2018-12-06T20:05:41.910Z,94.44
2018-12-06T20:32:14.859Z,94.41
2018-12-06T20:37:22.965Z,94.29
2018-12-06T20:42:30.394Z,94.60
2018-12-06T20:47:37.569Z,94.65
2018-12-06T20:52:50.028Z,95.00
2018-12-06T21:08:55.529Z,94.68
2018-12-06T21:14:06.767Z,94.79
2018-12-06T21:19:13.669Z,94.44
2018-12-06T21:24:20.743Z,94.41
2018-12-06T21:34:36.365Z,94.55
2018-12-06T21:39:46.426Z,94.73
2018-12-06T21:44:53.717Z,94.88
2018-12-06T21:50:08.472Z,94.64
2018-12-06T21:55:17.918Z,94.54
2018-12-06T22:06:05.675Z,94.32
2018-12-06T22:11:12.406Z,94.47
2018-12-06T22:16:19.034Z,94.35
2018-12-06T22:21:34.634Z,94.06
2018-12-06T22:26:42.432Z,93.82
2018-12-06T22:37:28.253Z,93.54
2018-12-06T22:42:42.151Z,93.83
2018-12-06T22:47:59.955Z,93.78
2018-12-06T22:58:39.381Z,93.95
2018-12-06T23:03:44.636Z,94.08
2018-12-06T23:08:59.915Z,94.27
2018-12-06T23:14:15.397Z,93.90
2018-12-06T23:24:55.818Z,93.99
2018-12-06T23:30:19.244Z,94.21
2018-12-06T23:46:26.550Z,94.05
2018-12-06T23:51:42.555Z,93.99
